Terminal Aerodrome Forecast
Issued by NWS

Home | Current Version | Previous Version | Text Only | Print | Product List | Glossary On
Versions: 1 2 3 4 5 6 7 8 9 10 11 12 13 14 15 16 17 18
000
FTUS45 KRIW 220327 AAA
TAFCPR
TAF AMD
KCPR 220327Z 2203/2224 09011KT P6SM SCT060 BKN110
     FM221200 21006KT P6SM SCT040 BKN090
     FM221600 22010G20KT P6SM SCT080 BKN150
     FM221900 24020G30KT P6SM SCT080 BKN200=

USA.gov is the U.S. government's official web portal to all federal, state and local government web resources and services.